sensor_id;sensor_type;location;lat;lon;timestamp;P1;durP1;ratioP1;P2;durP2;ratioP2
44732;SDS011;30460;50.836;4.390;2022-11-30T00:01:28;22.23;;;15.47;;
44732;SDS011;30460;50.836;4.390;2022-11-30T00:03:54;22.73;;;15.07;;
44732;SDS011;30460;50.836;4.390;2022-11-30T00:06:21;20.80;;;14.33;;
44732;SDS011;30460;50.836;4.390;2022-11-30T00:08:51;21.70;;;15.43;;
44732;SDS011;30460;50.836;4.390;2022-11-30T00:11:19;22.90;;;15.17;;
44732;SDS011;30460;50.836;4.390;2022-11-30T00:13:45;20.57;;;14.87;;
44732;SDS011;30460;50.836;4.390;2022-11-30T00:16:12;21.77;;;15.30;;
44732;SDS011;30460;50.836;4.390;2022-11-30T00:18:38;19.50;;;13.90;;
44732;SDS011;30460;50.836;4.390;2022-11-30T00:21:05;19.80;;;14.10;;
44732;SDS011;30460;50.836;4.390;2022-11-30T00:23:36;19.57;;;13.53;;
44732;SDS011;30460;50.836;4.390;2022-11-30T00:26:03;19.07;;;12.97;;
44732;SDS011;30460;50.836;4.390;2022-11-30T00:28:29;19.93;;;13.47;;
44732;SDS011;30460;50.836;4.390;2022-11-30T00:30:57;18.20;;;13.07;;
44732;SDS011;30460;50.836;4.390;2022-11-30T00:33:23;17.53;;;12.80;;
44732;SDS011;30460;50.836;4.390;2022-11-30T00:35:56;18.70;;;12.90;;
44732;SDS011;30460;50.836;4.390;2022-11-30T00:38:22;17.13;;;11.60;;
44732;SDS011;30460;50.836;4.390;2022-11-30T00:40:48;15.90;;;11.57;;
44732;SDS011;30460;50.836;4.390;2022-11-30T00:43:17;18.83;;;13.07;;
44732;SDS011;30460;50.836;4.390;2022-11-30T00:45:43;17.57;;;13.10;;
44732;SDS011;30460;50.836;4.390;2022-11-30T00:48:09;19.37;;;13.60;;
44732;SDS011;30460;50.836;4.390;2022-11-30T00:50:35;17.63;;;12.53;;
44732;SDS011;30460;50.836;4.390;2022-11-30T00:53:01;18.07;;;13.27;;
44732;SDS011;30460;50.836;4.390;2022-11-30T00:55:27;20.20;;;12.97;;
44732;SDS011;30460;50.836;4.390;2022-11-30T00:57:55;18.00;;;13.10;;
44732;SDS011;30460;50.836;4.390;2022-11-30T01:00:21;19.20;;;13.40;;
44732;SDS011;30460;50.836;4.390;2022-11-30T01:02:47;17.60;;;12.57;;
44732;SDS011;30460;50.836;4.390;2022-11-30T01:05:13;19.27;;;13.27;;
44732;SDS011;30460;50.836;4.390;2022-11-30T01:07:39;19.67;;;13.30;;
44732;SDS011;30460;50.836;4.390;2022-11-30T01:10:06;19.77;;;14.17;;
44732;SDS011;30460;50.836;4.390;2022-11-30T01:12:32;18.50;;;13.07;;
44732;SDS011;30460;50.836;4.390;2022-11-30T01:14:58;20.23;;;13.43;;
44732;SDS011;30460;50.836;4.390;2022-11-30T01:17:24;17.70;;;12.53;;
44732;SDS011;30460;50.836;4.390;2022-11-30T01:19:50;19.83;;;13.57;;
44732;SDS011;30460;50.836;4.390;2022-11-30T01:22:16;18.07;;;13.00;;
44732;SDS011;30460;50.836;4.390;2022-11-30T01:24:42;19.60;;;13.37;;
44732;SDS011;30460;50.836;4.390;2022-11-30T01:27:08;20.27;;;13.03;;
44732;SDS011;30460;50.836;4.390;2022-11-30T01:29:34;21.03;;;13.53;;
44732;SDS011;30460;50.836;4.390;2022-11-30T01:32:00;21.40;;;13.03;;
44732;SDS011;30460;50.836;4.390;2022-11-30T01:34:26;22.30;;;13.30;;
44732;SDS011;30460;50.836;4.390;2022-11-30T01:36:52;20.27;;;13.07;;
44732;SDS011;30460;50.836;4.390;2022-11-30T01:39:21;21.13;;;13.53;;
44732;SDS011;30460;50.836;4.390;2022-11-30T01:41:47;21.00;;;13.37;;
44732;SDS011;30460;50.836;4.390;2022-11-30T01:49:15;23.13;;;13.93;;
44732;SDS011;30460;50.836;4.390;2022-11-30T01:51:56;23.90;;;13.93;;
44732;SDS011;30460;50.836;4.390;2022-11-30T01:54:25;24.17;;;14.17;;
44732;SDS011;30460;50.836;4.390;2022-11-30T01:57:06;23.97;;;13.37;;
44732;SDS011;30460;50.836;4.390;2022-11-30T01:59:34;24.60;;;14.83;;
44732;SDS011;30460;50.836;4.390;2022-11-30T02:02:00;25.47;;;15.33;;
44732;SDS011;30460;50.836;4.390;2022-11-30T02:04:27;21.83;;;14.23;;
44732;SDS011;30460;50.836;4.390;2022-11-30T02:06:54;24.97;;;14.60;;
44732;SDS011;30460;50.836;4.390;2022-11-30T02:09:20;22.80;;;13.43;;
44732;SDS011;30460;50.836;4.390;2022-11-30T02:11:47;21.37;;;13.57;;
44732;SDS011;30460;50.836;4.390;2022-11-30T02:17:22;23.00;;;13.50;;
44732;SDS011;30460;50.836;4.390;2022-11-30T02:30:33;21.77;;;13.67;;
44732;SDS011;30460;50.836;4.390;2022-11-30T02:33:04;22.10;;;13.53;;
44732;SDS011;30460;50.836;4.390;2022-11-30T02:35:33;21.93;;;13.00;;
44732;SDS011;30460;50.836;4.390;2022-11-30T02:38:01;22.37;;;14.80;;
44732;SDS011;30460;50.836;4.390;2022-11-30T02:40:28;22.60;;;14.73;;
44732;SDS011;30460;50.836;4.390;2022-11-30T02:42:54;23.23;;;13.90;;
44732;SDS011;30460;50.836;4.390;2022-11-30T02:45:32;24.23;;;15.30;;
44732;SDS011;30460;50.836;4.390;2022-11-30T02:48:09;29.17;;;15.53;;
44732;SDS011;30460;50.836;4.390;2022-11-30T02:50:40;25.87;;;15.63;;
44732;SDS011;30460;50.836;4.390;2022-11-30T02:53:07;25.23;;;15.07;;
44732;SDS011;30460;50.836;4.390;2022-11-30T02:55:34;23.33;;;14.40;;
44732;SDS011;30460;50.836;4.390;2022-11-30T02:58:00;27.00;;;15.23;;
44732;SDS011;30460;50.836;4.390;2022-11-30T03:00:26;22.70;;;14.83;;
44732;SDS011;30460;50.836;4.390;2022-11-30T03:02:52;26.80;;;15.97;;
44732;SDS011;30460;50.836;4.390;2022-11-30T03:05:19;27.07;;;16.60;;
44732;SDS011;30460;50.836;4.390;2022-11-30T03:07:45;26.10;;;16.00;;
44732;SDS011;30460;50.836;4.390;2022-11-30T03:10:11;25.70;;;15.53;;
44732;SDS011;30460;50.836;4.390;2022-11-30T03:12:37;25.67;;;15.77;;
44732;SDS011;30460;50.836;4.390;2022-11-30T03:15:03;24.37;;;15.33;;
44732;SDS011;30460;50.836;4.390;2022-11-30T03:17:30;25.33;;;15.33;;
44732;SDS011;30460;50.836;4.390;2022-11-30T03:19:56;28.07;;;17.10;;
44732;SDS011;30460;50.836;4.390;2022-11-30T03:22:22;24.77;;;15.20;;
44732;SDS011;30460;50.836;4.390;2022-11-30T03:24:48;28.47;;;16.00;;
44732;SDS011;30460;50.836;4.390;2022-11-30T03:27:14;24.63;;;15.70;;
44732;SDS011;30460;50.836;4.390;2022-11-30T03:29:40;28.80;;;16.57;;
44732;SDS011;30460;50.836;4.390;2022-11-30T03:32:06;29.07;;;16.90;;
44732;SDS011;30460;50.836;4.390;2022-11-30T03:34:32;28.13;;;16.77;;
44732;SDS011;30460;50.836;4.390;2022-11-30T03:36:58;31.77;;;18.13;;
44732;SDS011;30460;50.836;4.390;2022-11-30T03:39:24;31.63;;;18.70;;
44732;SDS011;30460;50.836;4.390;2022-11-30T03:41:50;31.40;;;17.53;;
44732;SDS011;30460;50.836;4.390;2022-11-30T03:44:16;28.77;;;16.57;;
44732;SDS011;30460;50.836;4.390;2022-11-30T03:46:43;28.20;;;16.73;;
44732;SDS011;30460;50.836;4.390;2022-11-30T03:49:09;32.63;;;18.47;;
44732;SDS011;30460;50.836;4.390;2022-11-30T03:51:35;31.80;;;17.67;;
44732;SDS011;30460;50.836;4.390;2022-11-30T03:54:01;31.70;;;18.30;;
44732;SDS011;30460;50.836;4.390;2022-11-30T03:56:27;30.47;;;17.30;;
44732;SDS011;30460;50.836;4.390;2022-11-30T03:58:53;34.33;;;18.07;;
44732;SDS011;30460;50.836;4.390;2022-11-30T04:01:20;32.60;;;17.73;;
44732;SDS011;30460;50.836;4.390;2022-11-30T04:03:47;34.87;;;18.77;;
44732;SDS011;30460;50.836;4.390;2022-11-30T04:06:14;29.63;;;17.40;;
44732;SDS011;30460;50.836;4.390;2022-11-30T04:08:40;30.30;;;17.10;;
44732;SDS011;30460;50.836;4.390;2022-11-30T04:11:07;33.03;;;18.13;;
44732;SDS011;30460;50.836;4.390;2022-11-30T04:13:34;34.07;;;17.63;;
44732;SDS011;30460;50.836;4.390;2022-11-30T04:16:01;32.43;;;18.13;;
44732;SDS011;30460;50.836;4.390;2022-11-30T04:18:27;32.23;;;18.10;;
44732;SDS011;30460;50.836;4.390;2022-11-30T04:20:54;31.27;;;17.30;;
44732;SDS011;30460;50.836;4.390;2022-11-30T04:23:21;29.93;;;17.43;;
44732;SDS011;30460;50.836;4.390;2022-11-30T04:25:47;28.33;;;17.07;;
44732;SDS011;30460;50.836;4.390;2022-11-30T04:28:14;27.33;;;17.53;;
44732;SDS011;30460;50.836;4.390;2022-11-30T04:30:41;30.10;;;17.03;;
44732;SDS011;30460;50.836;4.390;2022-11-30T04:33:07;32.77;;;17.80;;
44732;SDS011;30460;50.836;4.390;2022-11-30T04:35:37;32.37;;;18.10;;
44732;SDS011;30460;50.836;4.390;2022-11-30T04:38:04;34.07;;;19.03;;
44732;SDS011;30460;50.836;4.390;2022-11-30T04:40:29;34.27;;;18.30;;
44732;SDS011;30460;50.836;4.390;2022-11-30T04:42:55;35.13;;;18.93;;
44732;SDS011;30460;50.836;4.390;2022-11-30T04:45:22;34.63;;;19.30;;
44732;SDS011;30460;50.836;4.390;2022-11-30T04:47:48;36.23;;;19.63;;
44732;SDS011;30460;50.836;4.390;2022-11-30T04:50:14;35.80;;;20.80;;
44732;SDS011;30460;50.836;4.390;2022-11-30T04:52:40;37.87;;;19.67;;
44732;SDS011;30460;50.836;4.390;2022-11-30T04:55:06;37.00;;;20.57;;
44732;SDS011;30460;50.836;4.390;2022-11-30T04:57:32;33.47;;;18.87;;
44732;SDS011;30460;50.836;4.390;2022-11-30T04:59:58;31.13;;;18.77;;
44732;SDS011;30460;50.836;4.390;2022-11-30T05:02:24;36.80;;;20.00;;
44732;SDS011;30460;50.836;4.390;2022-11-30T05:04:50;35.60;;;19.47;;
44732;SDS011;30460;50.836;4.390;2022-11-30T05:07:16;32.67;;;19.57;;
44732;SDS011;30460;50.836;4.390;2022-11-30T05:09:42;30.87;;;17.93;;
44732;SDS011;30460;50.836;4.390;2022-11-30T05:12:08;33.13;;;18.03;;
44732;SDS011;30460;50.836;4.390;2022-11-30T05:14:35;33.90;;;18.57;;
44732;SDS011;30460;50.836;4.390;2022-11-30T05:17:01;33.03;;;18.37;;
44732;SDS011;30460;50.836;4.390;2022-11-30T05:19:27;33.37;;;19.90;;
44732;SDS011;30460;50.836;4.390;2022-11-30T05:21:53;33.00;;;19.10;;
44732;SDS011;30460;50.836;4.390;2022-11-30T05:24:19;33.20;;;18.23;;
44732;SDS011;30460;50.836;4.390;2022-11-30T05:26:45;29.97;;;18.13;;
44732;SDS011;30460;50.836;4.390;2022-11-30T05:29:11;32.80;;;18.73;;
44732;SDS011;30460;50.836;4.390;2022-11-30T05:31:38;29.87;;;18.17;;
44732;SDS011;30460;50.836;4.390;2022-11-30T05:34:05;32.00;;;18.83;;
44732;SDS011;30460;50.836;4.390;2022-11-30T05:36:31;32.07;;;17.93;;
44732;SDS011;30460;50.836;4.390;2022-11-30T05:38:57;33.33;;;18.70;;
44732;SDS011;30460;50.836;4.390;2022-11-30T05:41:23;35.20;;;19.87;;
44732;SDS011;30460;50.836;4.390;2022-11-30T05:43:49;34.13;;;19.20;;
44732;SDS011;30460;50.836;4.390;2022-11-30T05:46:15;34.57;;;19.47;;
44732;SDS011;30460;50.836;4.390;2022-11-30T05:48:41;32.17;;;18.73;;
44732;SDS011;30460;50.836;4.390;2022-11-30T05:51:14;34.63;;;19.07;;
44732;SDS011;30460;50.836;4.390;2022-11-30T05:53:41;32.20;;;18.70;;
44732;SDS011;30460;50.836;4.390;2022-11-30T05:56:13;34.60;;;18.87;;
44732;SDS011;30460;50.836;4.390;2022-11-30T05:58:39;35.07;;;19.30;;
44732;SDS011;30460;50.836;4.390;2022-11-30T06:01:05;31.47;;;18.37;;
44732;SDS011;30460;50.836;4.390;2022-11-30T06:03:32;35.27;;;19.77;;
44732;SDS011;30460;50.836;4.390;2022-11-30T06:05:58;34.37;;;19.93;;
44732;SDS011;30460;50.836;4.390;2022-11-30T06:08:24;37.63;;;21.03;;
44732;SDS011;30460;50.836;4.390;2022-11-30T06:10:51;35.13;;;19.17;;
44732;SDS011;30460;50.836;4.390;2022-11-30T06:13:17;35.20;;;20.03;;
44732;SDS011;30460;50.836;4.390;2022-11-30T06:15:43;37.47;;;20.53;;
44732;SDS011;30460;50.836;4.390;2022-11-30T06:18:12;36.67;;;19.37;;
44732;SDS011;30460;50.836;4.390;2022-11-30T06:20:38;33.47;;;18.83;;
44732;SDS011;30460;50.836;4.390;2022-11-30T06:23:04;35.13;;;19.83;;
44732;SDS011;30460;50.836;4.390;2022-11-30T06:25:31;32.93;;;18.80;;
44732;SDS011;30460;50.836;4.390;2022-11-30T06:27:57;39.10;;;19.47;;
44732;SDS011;30460;50.836;4.390;2022-11-30T06:30:23;34.60;;;18.93;;
44732;SDS011;30460;50.836;4.390;2022-11-30T06:32:50;35.37;;;19.40;;
44732;SDS011;30460;50.836;4.390;2022-11-30T06:35:16;32.93;;;18.43;;
44732;SDS011;30460;50.836;4.390;2022-11-30T06:37:43;35.60;;;19.20;;
44732;SDS011;30460;50.836;4.390;2022-11-30T06:40:10;32.97;;;18.97;;
44732;SDS011;30460;50.836;4.390;2022-11-30T06:42:36;32.67;;;18.50;;
44732;SDS011;30460;50.836;4.390;2022-11-30T06:45:04;32.43;;;18.90;;
44732;SDS011;30460;50.836;4.390;2022-11-30T06:47:33;31.40;;;18.60;;
44732;SDS011;30460;50.836;4.390;2022-11-30T06:49:59;33.27;;;19.20;;
44732;SDS011;30460;50.836;4.390;2022-11-30T06:52:28;36.83;;;19.97;;
44732;SDS011;30460;50.836;4.390;2022-11-30T06:54:54;33.97;;;18.20;;
44732;SDS011;30460;50.836;4.390;2022-11-30T06:57:20;31.37;;;18.07;;
44732;SDS011;30460;50.836;4.390;2022-11-30T06:59:50;33.83;;;18.93;;
44732;SDS011;30460;50.836;4.390;2022-11-30T07:02:16;30.47;;;17.93;;
44732;SDS011;30460;50.836;4.390;2022-11-30T07:04:45;32.47;;;18.50;;
44732;SDS011;30460;50.836;4.390;2022-11-30T07:07:11;31.03;;;17.57;;
44732;SDS011;30460;50.836;4.390;2022-11-30T07:09:37;32.40;;;19.20;;
44732;SDS011;30460;50.836;4.390;2022-11-30T07:12:03;32.70;;;18.90;;
44732;SDS011;30460;50.836;4.390;2022-11-30T07:14:29;33.70;;;19.80;;
44732;SDS011;30460;50.836;4.390;2022-11-30T07:16:55;37.50;;;21.20;;
44732;SDS011;30460;50.836;4.390;2022-11-30T07:19:22;37.70;;;19.83;;
44732;SDS011;30460;50.836;4.390;2022-11-30T07:21:48;37.23;;;19.83;;
44732;SDS011;30460;50.836;4.390;2022-11-30T07:24:14;39.33;;;21.20;;
44732;SDS011;30460;50.836;4.390;2022-11-30T07:26:59;37.03;;;20.63;;
44732;SDS011;30460;50.836;4.390;2022-11-30T07:29:25;39.30;;;21.00;;
44732;SDS011;30460;50.836;4.390;2022-11-30T07:31:52;39.47;;;21.03;;
44732;SDS011;30460;50.836;4.390;2022-11-30T07:34:18;39.40;;;20.27;;
44732;SDS011;30460;50.836;4.390;2022-11-30T07:36:48;36.60;;;20.03;;
44732;SDS011;30460;50.836;4.390;2022-11-30T07:39:14;36.00;;;19.80;;
44732;SDS011;30460;50.836;4.390;2022-11-30T07:41:40;36.47;;;19.60;;
44732;SDS011;30460;50.836;4.390;2022-11-30T07:44:07;37.97;;;19.93;;
44732;SDS011;30460;50.836;4.390;2022-11-30T07:46:34;34.17;;;19.47;;
44732;SDS011;30460;50.836;4.390;2022-11-30T07:49:03;34.87;;;20.77;;
44732;SDS011;30460;50.836;4.390;2022-11-30T07:51:30;30.17;;;17.83;;
44732;SDS011;30460;50.836;4.390;2022-11-30T07:53:57;37.00;;;19.57;;
44732;SDS011;30460;50.836;4.390;2022-11-30T07:56:24;39.70;;;20.93;;
44732;SDS011;30460;50.836;4.390;2022-11-30T07:58:52;40.27;;;20.63;;
44732;SDS011;30460;50.836;4.390;2022-11-30T08:01:19;38.23;;;21.13;;
44732;SDS011;30460;50.836;4.390;2022-11-30T08:03:46;39.57;;;21.10;;
44732;SDS011;30460;50.836;4.390;2022-11-30T08:06:14;38.67;;;21.87;;
44732;SDS011;30460;50.836;4.390;2022-11-30T08:08:41;39.27;;;20.97;;
44732;SDS011;30460;50.836;4.390;2022-11-30T08:11:08;38.47;;;21.87;;
44732;SDS011;30460;50.836;4.390;2022-11-30T08:13:35;39.53;;;21.07;;
44732;SDS011;30460;50.836;4.390;2022-11-30T08:16:02;38.13;;;19.67;;
44732;SDS011;30460;50.836;4.390;2022-11-30T08:18:28;41.73;;;20.67;;
44732;SDS011;30460;50.836;4.390;2022-11-30T08:20:55;37.33;;;19.23;;
44732;SDS011;30460;50.836;4.390;2022-11-30T08:23:21;37.07;;;19.50;;
44732;SDS011;30460;50.836;4.390;2022-11-30T08:25:48;33.70;;;20.10;;
44732;SDS011;30460;50.836;4.390;2022-11-30T08:28:14;39.37;;;20.73;;
44732;SDS011;30460;50.836;4.390;2022-11-30T08:30:40;35.47;;;19.67;;
44732;SDS011;30460;50.836;4.390;2022-11-30T08:33:08;33.57;;;18.70;;
44732;SDS011;30460;50.836;4.390;2022-11-30T08:35:34;35.07;;;19.57;;
44732;SDS011;30460;50.836;4.390;2022-11-30T08:38:00;30.53;;;18.10;;
44732;SDS011;30460;50.836;4.390;2022-11-30T08:40:26;31.83;;;18.27;;
44732;SDS011;30460;50.836;4.390;2022-11-30T08:42:52;35.40;;;18.90;;
44732;SDS011;30460;50.836;4.390;2022-11-30T08:45:21;30.97;;;17.27;;
44732;SDS011;30460;50.836;4.390;2022-11-30T08:47:47;29.67;;;18.37;;
44732;SDS011;30460;50.836;4.390;2022-11-30T08:50:13;33.03;;;18.57;;
44732;SDS011;30460;50.836;4.390;2022-11-30T08:52:39;30.50;;;18.83;;
44732;SDS011;30460;50.836;4.390;2022-11-30T08:55:05;32.10;;;18.93;;
44732;SDS011;30460;50.836;4.390;2022-11-30T08:57:32;40.10;;;23.80;;
44732;SDS011;30460;50.836;4.390;2022-11-30T08:59:58;38.57;;;24.37;;
44732;SDS011;30460;50.836;4.390;2022-11-30T09:02:24;33.60;;;20.63;;
44732;SDS011;30460;50.836;4.390;2022-11-30T09:04:50;41.87;;;27.00;;
44732;SDS011;30460;50.836;4.390;2022-11-30T09:07:17;39.23;;;22.60;;
44732;SDS011;30460;50.836;4.390;2022-11-30T09:09:44;36.47;;;20.87;;
44732;SDS011;30460;50.836;4.390;2022-11-30T09:12:10;33.07;;;19.70;;
44732;SDS011;30460;50.836;4.390;2022-11-30T09:14:36;31.43;;;19.67;;
44732;SDS011;30460;50.836;4.390;2022-11-30T09:17:02;34.57;;;19.40;;
44732;SDS011;30460;50.836;4.390;2022-11-30T09:19:28;34.57;;;20.20;;
44732;SDS011;30460;50.836;4.390;2022-11-30T09:21:54;37.60;;;20.50;;
44732;SDS011;30460;50.836;4.390;2022-11-30T09:24:20;30.97;;;19.13;;
44732;SDS011;30460;50.836;4.390;2022-11-30T09:26:47;35.77;;;20.73;;
44732;SDS011;30460;50.836;4.390;2022-11-30T09:29:13;33.10;;;18.83;;
44732;SDS011;30460;50.836;4.390;2022-11-30T09:31:39;36.43;;;20.00;;
44732;SDS011;30460;50.836;4.390;2022-11-30T09:34:05;36.83;;;20.20;;
44732;SDS011;30460;50.836;4.390;2022-11-30T09:36:31;35.17;;;20.40;;
44732;SDS011;30460;50.836;4.390;2022-11-30T09:38:57;35.03;;;21.33;;
44732;SDS011;30460;50.836;4.390;2022-11-30T09:47:01;34.23;;;20.30;;
44732;SDS011;30460;50.836;4.390;2022-11-30T09:49:30;36.80;;;21.50;;
44732;SDS011;30460;50.836;4.390;2022-11-30T09:51:57;35.63;;;21.33;;
44732;SDS011;30460;50.836;4.390;2022-11-30T09:54:37;38.63;;;20.63;;
44732;SDS011;30460;50.836;4.390;2022-11-30T09:57:04;37.07;;;21.23;;
44732;SDS011;30460;50.836;4.390;2022-11-30T09:59:37;33.10;;;20.50;;
44732;SDS011;30460;50.836;4.390;2022-11-30T10:02:11;32.83;;;20.63;;
44732;SDS011;30460;50.836;4.390;2022-11-30T10:04:38;35.87;;;19.30;;
44732;SDS011;30460;50.836;4.390;2022-11-30T10:07:27;32.20;;;19.27;;
44732;SDS011;30460;50.836;4.390;2022-11-30T10:09:54;34.17;;;20.30;;
44732;SDS011;30460;50.836;4.390;2022-11-30T10:12:27;33.50;;;20.07;;
44732;SDS011;30460;50.836;4.390;2022-11-30T10:20:26;35.43;;;20.67;;
44732;SDS011;30460;50.836;4.390;2022-11-30T10:25:32;35.07;;;20.43;;
44732;SDS011;30460;50.836;4.390;2022-11-30T10:28:07;43.33;;;26.50;;
44732;SDS011;30460;50.836;4.390;2022-11-30T10:30:37;38.93;;;21.97;;
44732;SDS011;30460;50.836;4.390;2022-11-30T10:33:04;35.23;;;21.77;;
44732;SDS011;30460;50.836;4.390;2022-11-30T10:38:08;37.30;;;21.63;;
44732;SDS011;30460;50.836;4.390;2022-11-30T10:40:43;40.93;;;22.60;;
44732;SDS011;30460;50.836;4.390;2022-11-30T10:43:16;41.97;;;26.33;;
44732;SDS011;30460;50.836;4.390;2022-11-30T10:45:46;37.60;;;20.90;;
44732;SDS011;30460;50.836;4.390;2022-11-30T10:48:19;33.77;;;21.27;;
44732;SDS011;30460;50.836;4.390;2022-11-30T10:50:46;34.57;;;21.67;;
44732;SDS011;30460;50.836;4.390;2022-11-30T10:53:12;38.70;;;22.53;;
44732;SDS011;30460;50.836;4.390;2022-11-30T10:55:40;34.73;;;20.93;;
44732;SDS011;30460;50.836;4.390;2022-11-30T10:58:13;34.53;;;20.30;;
44732;SDS011;30460;50.836;4.390;2022-11-30T11:00:43;34.83;;;20.47;;
44732;SDS011;30460;50.836;4.390;2022-11-30T11:03:21;35.13;;;19.63;;
44732;SDS011;30460;50.836;4.390;2022-11-30T11:05:47;32.73;;;19.57;;
44732;SDS011;30460;50.836;4.390;2022-11-30T11:08:27;33.30;;;20.17;;
44732;SDS011;30460;50.836;4.390;2022-11-30T11:10:53;33.80;;;20.53;;
44732;SDS011;30460;50.836;4.390;2022-11-30T11:13:34;33.00;;;20.53;;
44732;SDS011;30460;50.836;4.390;2022-11-30T11:16:01;38.40;;;21.40;;
44732;SDS011;30460;50.836;4.390;2022-11-30T11:18:28;34.70;;;21.80;;
44732;SDS011;30460;50.836;4.390;2022-11-30T11:23:31;35.47;;;20.77;;
44732;SDS011;30460;50.836;4.390;2022-11-30T11:25:58;37.30;;;21.00;;
44732;SDS011;30460;50.836;4.390;2022-11-30T11:28:25;37.00;;;22.07;;
44732;SDS011;30460;50.836;4.390;2022-11-30T11:30:52;35.57;;;20.90;;
44732;SDS011;30460;50.836;4.390;2022-11-30T11:33:21;32.47;;;18.97;;
44732;SDS011;30460;50.836;4.390;2022-11-30T11:35:54;31.63;;;19.03;;
44732;SDS011;30460;50.836;4.390;2022-11-30T11:38:25;39.40;;;24.33;;
44732;SDS011;30460;50.836;4.390;2022-11-30T11:40:52;31.87;;;20.10;;
44732;SDS011;30460;50.836;4.390;2022-11-30T11:43:20;35.70;;;21.53;;
44732;SDS011;30460;50.836;4.390;2022-11-30T11:45:50;33.10;;;20.37;;
44732;SDS011;30460;50.836;4.390;2022-11-30T11:48:31;30.10;;;20.57;;
44732;SDS011;30460;50.836;4.390;2022-11-30T11:51:02;31.87;;;20.87;;
44732;SDS011;30460;50.836;4.390;2022-11-30T11:53:48;33.97;;;21.40;;
44732;SDS011;30460;50.836;4.390;2022-11-30T11:58:59;35.77;;;21.60;;
44732;SDS011;30460;50.836;4.390;2022-11-30T12:06:21;34.97;;;22.00;;
44732;SDS011;30460;50.836;4.390;2022-11-30T12:08:49;39.53;;;23.80;;
44732;SDS011;30460;50.836;4.390;2022-11-30T12:11:27;36.67;;;22.40;;
44732;SDS011;30460;50.836;4.390;2022-11-30T12:13:54;34.53;;;22.77;;
44732;SDS011;30460;50.836;4.390;2022-11-30T12:19:16;40.37;;;24.20;;
44732;SDS011;30460;50.836;4.390;2022-11-30T12:24:33;37.03;;;23.20;;
44732;SDS011;30460;50.836;4.390;2022-11-30T12:37:35;41.93;;;24.47;;
44732;SDS011;30460;50.836;4.390;2022-11-30T12:45:25;36.47;;;24.30;;
44732;SDS011;30460;50.836;4.390;2022-11-30T12:47:58;36.80;;;23.63;;
44732;SDS011;30460;50.836;4.390;2022-11-30T12:50:32;35.57;;;22.47;;
44732;SDS011;30460;50.836;4.390;2022-11-30T12:55:38;36.50;;;23.10;;
44732;SDS011;30460;50.836;4.390;2022-11-30T13:00:48;36.07;;;23.80;;
44732;SDS011;30460;50.836;4.390;2022-11-30T13:06:23;37.90;;;23.67;;
44732;SDS011;30460;50.836;4.390;2022-11-30T13:08:52;37.17;;;23.33;;
44732;SDS011;30460;50.836;4.390;2022-11-30T13:11:42;38.57;;;23.57;;
44732;SDS011;30460;50.836;4.390;2022-11-30T13:14:12;39.37;;;23.87;;
44732;SDS011;30460;50.836;4.390;2022-11-30T13:16:39;39.83;;;25.17;;
44732;SDS011;30460;50.836;4.390;2022-11-30T13:21:54;40.20;;;24.13;;
44732;SDS011;30460;50.836;4.390;2022-11-30T13:24:26;35.33;;;23.13;;
44732;SDS011;30460;50.836;4.390;2022-11-30T13:26:56;38.00;;;22.13;;
44732;SDS011;30460;50.836;4.390;2022-11-30T13:32:11;40.17;;;24.43;;
44732;SDS011;30460;50.836;4.390;2022-11-30T13:34:38;40.60;;;24.83;;
44732;SDS011;30460;50.836;4.390;2022-11-30T13:37:08;36.53;;;22.90;;
44732;SDS011;30460;50.836;4.390;2022-11-30T13:44:40;33.60;;;21.00;;
44732;SDS011;30460;50.836;4.390;2022-11-30T13:47:17;37.90;;;22.53;;
44732;SDS011;30460;50.836;4.390;2022-11-30T13:49:43;36.90;;;21.30;;
44732;SDS011;30460;50.836;4.390;2022-11-30T13:52:13;35.20;;;21.43;;
44732;SDS011;30460;50.836;4.390;2022-11-30T13:59:45;35.57;;;22.70;;
44732;SDS011;30460;50.836;4.390;2022-11-30T14:08:08;40.80;;;22.77;;
44732;SDS011;30460;50.836;4.390;2022-11-30T14:10:34;37.53;;;23.53;;
44732;SDS011;30460;50.836;4.390;2022-11-30T14:13:04;36.50;;;22.23;;
44732;SDS011;30460;50.836;4.390;2022-11-30T14:15:51;36.73;;;22.17;;
44732;SDS011;30460;50.836;4.390;2022-11-30T14:25:52;34.30;;;21.90;;
44732;SDS011;30460;50.836;4.390;2022-11-30T14:28:20;36.23;;;23.33;;
44732;SDS011;30460;50.836;4.390;2022-11-30T14:30:48;33.70;;;20.63;;
44732;SDS011;30460;50.836;4.390;2022-11-30T14:33:18;36.60;;;21.67;;
44732;SDS011;30460;50.836;4.390;2022-11-30T14:35:46;37.93;;;22.40;;
44732;SDS011;30460;50.836;4.390;2022-11-30T14:38:20;35.67;;;22.40;;
44732;SDS011;30460;50.836;4.390;2022-11-30T14:40:49;35.17;;;23.03;;
44732;SDS011;30460;50.836;4.390;2022-11-30T14:43:16;41.17;;;23.70;;
44732;SDS011;30460;50.836;4.390;2022-11-30T14:45:43;37.03;;;23.50;;
44732;SDS011;30460;50.836;4.390;2022-11-30T14:48:20;37.87;;;23.87;;
44732;SDS011;30460;50.836;4.390;2022-11-30T14:50:54;38.43;;;23.13;;
44732;SDS011;30460;50.836;4.390;2022-11-30T14:53:27;35.23;;;22.20;;
44732;SDS011;30460;50.836;4.390;2022-11-30T14:55:59;40.73;;;24.57;;
44732;SDS011;30460;50.836;4.390;2022-11-30T15:00:55;44.37;;;24.00;;
44732;SDS011;30460;50.836;4.390;2022-11-30T15:03:23;37.23;;;22.33;;
44732;SDS011;30460;50.836;4.390;2022-11-30T15:05:50;38.67;;;24.23;;
44732;SDS011;30460;50.836;4.390;2022-11-30T15:08:17;35.33;;;22.47;;
44732;SDS011;30460;50.836;4.390;2022-11-30T15:10:43;34.00;;;22.93;;
44732;SDS011;30460;50.836;4.390;2022-11-30T15:13:12;40.23;;;23.10;;
44732;SDS011;30460;50.836;4.390;2022-11-30T15:15:49;35.77;;;23.37;;
44732;SDS011;30460;50.836;4.390;2022-11-30T15:18:16;41.63;;;23.90;;
44732;SDS011;30460;50.836;4.390;2022-11-30T15:23:35;41.87;;;24.93;;
44732;SDS011;30460;50.836;4.390;2022-11-30T15:26:03;37.60;;;24.23;;
44732;SDS011;30460;50.836;4.390;2022-11-30T15:28:30;41.67;;;25.10;;
44732;SDS011;30460;50.836;4.390;2022-11-30T15:30:58;43.47;;;23.67;;
44732;SDS011;30460;50.836;4.390;2022-11-30T15:33:27;40.73;;;24.50;;
44732;SDS011;30460;50.836;4.390;2022-11-30T15:35:55;37.87;;;24.33;;
44732;SDS011;30460;50.836;4.390;2022-11-30T15:38:25;38.70;;;23.80;;
44732;SDS011;30460;50.836;4.390;2022-11-30T15:40:58;37.47;;;24.47;;
44732;SDS011;30460;50.836;4.390;2022-11-30T15:43:25;37.33;;;25.20;;
44732;SDS011;30460;50.836;4.390;2022-11-30T15:45:57;43.03;;;25.93;;
44732;SDS011;30460;50.836;4.390;2022-11-30T15:48:30;39.23;;;25.30;;
44732;SDS011;30460;50.836;4.390;2022-11-30T15:50:57;40.87;;;25.63;;
44732;SDS011;30460;50.836;4.390;2022-11-30T15:53:27;40.50;;;25.73;;
44732;SDS011;30460;50.836;4.390;2022-11-30T15:55:55;40.43;;;25.73;;
44732;SDS011;30460;50.836;4.390;2022-11-30T16:01:01;40.50;;;25.47;;
44732;SDS011;30460;50.836;4.390;2022-11-30T16:03:29;38.07;;;24.10;;
44732;SDS011;30460;50.836;4.390;2022-11-30T16:05:56;40.77;;;25.07;;
44732;SDS011;30460;50.836;4.390;2022-11-30T16:08:22;41.50;;;24.87;;
44732;SDS011;30460;50.836;4.390;2022-11-30T16:10:49;43.00;;;25.20;;
44732;SDS011;30460;50.836;4.390;2022-11-30T16:13:15;37.20;;;25.07;;
44732;SDS011;30460;50.836;4.390;2022-11-30T16:15:43;42.67;;;25.63;;
44732;SDS011;30460;50.836;4.390;2022-11-30T16:18:15;42.50;;;26.27;;